createdAt,value
2023-03-12T00:01:01.465Z,5.50
2023-03-12T00:03:48.657Z,5.50
2023-03-12T00:06:34.079Z,5.50
2023-03-12T00:09:20.022Z,5.50
2023-03-12T00:12:06.458Z,5.50
2023-03-12T00:14:51.703Z,5.50
2023-03-12T00:17:37.628Z,5.50
2023-03-12T00:20:23.586Z,5.50
2023-03-12T00:23:08.933Z,5.40
2023-03-12T00:25:54.333Z,5.40
2023-03-12T00:28:40.886Z,5.40
2023-03-12T00:31:29.344Z,5.40
2023-03-12T00:34:17.473Z,5.40
2023-03-12T00:37:03.078Z,5.40
2023-03-12T00:39:54.267Z,5.40
2023-03-12T00:42:40.088Z,5.40
2023-03-12T00:45:25.751Z,5.40
2023-03-12T00:48:11.564Z,5.40
2023-03-12T00:50:58.435Z,5.30
2023-03-12T00:53:44.104Z,5.30
2023-03-12T00:56:29.521Z,5.30
2023-03-12T00:59:16.139Z,5.30
2023-03-12T01:02:02.033Z,5.30
2023-03-12T01:04:47.334Z,5.30
2023-03-12T01:07:34.482Z,5.30
2023-03-12T01:10:21.364Z,5.30
2023-03-12T01:13:07.302Z,5.30
2023-03-12T01:15:52.561Z,5.30
2023-03-12T01:18:44.086Z,5.30
2023-03-12T01:21:31.081Z,5.30
2023-03-12T01:24:19.737Z,5.30
2023-03-12T01:27:05.567Z,5.30
2023-03-12T01:29:50.800Z,5.30
2023-03-12T01:32:36.823Z,5.30
2023-03-12T01:35:22.095Z,5.30
2023-03-12T01:38:16.692Z,5.30
2023-03-12T01:41:01.978Z,5.30
2023-03-12T01:43:47.525Z,5.40
2023-03-12T01:46:39.337Z,5.40
2023-03-12T01:49:37.841Z,5.40
2023-03-12T01:52:32.430Z,5.40
2023-03-12T01:55:18.980Z,5.30
2023-03-12T01:58:06.969Z,5.40
2023-03-12T02:00:53.728Z,5.40
2023-03-12T02:03:39.841Z,5.40
2023-03-12T02:06:45.704Z,5.40
2023-03-12T02:09:38.393Z,5.40
2023-03-12T02:12:23.765Z,5.40
2023-03-12T02:15:13.634Z,5.40
2023-03-12T02:17:59.570Z,5.40
2023-03-12T02:20:52.836Z,5.40
2023-03-12T02:23:47.753Z,5.50
2023-03-12T02:26:37.726Z,5.50
2023-03-12T02:29:25.377Z,5.50
2023-03-12T02:32:18.445Z,5.50
2023-03-12T02:35:05.275Z,5.50
2023-03-12T02:37:52.658Z,5.50
2023-03-12T02:40:43.609Z,5.50
2023-03-12T02:43:29.523Z,5.50
2023-03-12T02:46:15.695Z,5.50
2023-03-12T02:49:01.815Z,5.50
2023-03-12T02:51:50.672Z,5.50
2023-03-12T02:54:36.354Z,5.50
2023-03-12T02:57:21.671Z,5.50
2023-03-12T03:00:14.617Z,5.50
2023-03-12T03:03:04.207Z,5.50
2023-03-12T03:05:50.261Z,5.40
2023-03-12T03:08:35.546Z,5.30
2023-03-12T03:11:24.937Z,5.30
2023-03-12T03:14:12.742Z,5.30
2023-03-12T03:16:58.861Z,5.30
2023-03-12T03:19:44.232Z,5.30
2023-03-12T03:22:32.557Z,5.30
2023-03-12T03:25:18.324Z,5.20
2023-03-12T03:28:07.076Z,5.30
2023-03-12T03:30:59.972Z,5.30
2023-03-12T03:33:46.105Z,5.30
2023-03-12T03:36:32.401Z,5.30
2023-03-12T03:39:25.487Z,5.30
2023-03-12T03:42:11.032Z,5.20
2023-03-12T03:44:56.561Z,5.30
2023-03-12T03:47:41.896Z,5.30
2023-03-12T03:50:28.024Z,5.30
2023-03-12T03:53:19.363Z,5.30
2023-03-12T03:56:13.440Z,5.30
2023-03-12T03:59:04.117Z,5.30
2023-03-12T04:01:53.593Z,5.30
2023-03-12T04:04:39.001Z,5.30
2023-03-12T04:07:27.000Z,5.30
2023-03-12T04:10:12.860Z,5.30
2023-03-12T04:12:58.372Z,5.30
2023-03-12T04:15:55.673Z,5.30
2023-03-12T04:18:41.480Z,5.30
2023-03-12T04:21:27.124Z,5.30
2023-03-12T04:24:20.894Z,5.30
2023-03-12T04:27:07.331Z,5.30
2023-03-12T04:29:53.277Z,5.30
2023-03-12T04:32:38.839Z,5.30
2023-03-12T04:35:25.025Z,5.30
2023-03-12T04:38:10.670Z,5.30
2023-03-12T04:41:08.530Z,5.20
2023-03-12T04:43:58.713Z,5.20
2023-03-12T04:46:44.425Z,5.20
2023-03-12T04:49:36.004Z,5.10
2023-03-12T04:52:23.742Z,5.10
2023-03-12T04:55:09.553Z,5.10
2023-03-12T04:57:55.489Z,5.00
2023-03-12T05:00:42.798Z,5.00
2023-03-12T05:03:31.762Z,5.00
2023-03-12T05:06:17.541Z,4.90
2023-03-12T05:09:04.728Z,4.90
2023-03-12T05:11:51.230Z,4.90
2023-03-12T05:14:39.551Z,4.90
2023-03-12T05:17:25.644Z,4.90
2023-03-12T05:20:12.390Z,4.90
2023-03-12T05:22:57.749Z,4.90
2023-03-12T05:25:43.551Z,4.90
2023-03-12T05:28:29.797Z,4.90
2023-03-12T05:31:19.439Z,4.90
2023-03-12T05:34:05.682Z,4.90
2023-03-12T05:36:55.075Z,4.90
2023-03-12T05:39:46.968Z,4.90
2023-03-12T05:42:34.258Z,4.90
2023-03-12T05:45:20.346Z,5.00
2023-03-12T05:48:12.033Z,4.90
2023-03-12T05:50:58.300Z,5.00
2023-03-12T05:53:44.433Z,5.00
2023-03-12T05:56:29.764Z,5.00
2023-03-12T05:59:15.604Z,5.00
2023-03-12T06:02:05.076Z,5.00
2023-03-12T06:04:51.509Z,5.00
2023-03-12T06:07:37.514Z,5.00
2023-03-12T06:10:22.967Z,4.90
2023-03-12T06:13:09.878Z,5.00
2023-03-12T06:16:09.647Z,5.00
2023-03-12T06:19:00.186Z,5.00
2023-03-12T06:21:45.824Z,5.00
2023-03-12T06:24:32.026Z,5.00
2023-03-12T06:27:23.038Z,5.00
2023-03-12T06:30:11.875Z,5.00
2023-03-12T06:32:57.545Z,5.00
2023-03-12T06:35:43.033Z,5.00
2023-03-12T06:38:36.341Z,5.00
2023-03-12T06:41:21.629Z,5.10
2023-03-12T06:44:07.444Z,5.10
2023-03-12T06:46:53.081Z,5.20
2023-03-12T06:49:40.904Z,5.20
2023-03-12T06:52:27.646Z,5.20
2023-03-12T06:55:12.998Z,5.20
2023-03-12T06:57:58.422Z,5.30
2023-03-12T07:00:44.187Z,5.30
2023-03-12T07:03:29.523Z,5.40
2023-03-12T07:06:18.002Z,5.40
2023-03-12T07:09:04.904Z,5.40
2023-03-12T07:11:50.345Z,5.40
2023-03-12T07:14:35.776Z,5.50
2023-03-12T07:17:22.282Z,5.50
2023-03-12T07:20:08.616Z,5.60
2023-03-12T07:22:54.103Z,5.60
2023-03-12T07:25:43.585Z,5.60
2023-03-12T07:28:28.804Z,5.70
2023-03-12T07:31:14.600Z,5.80
2023-03-12T07:34:00.019Z,5.80
2023-03-12T07:36:45.531Z,5.90
2023-03-12T07:39:31.783Z,5.90
2023-03-12T07:42:17.204Z,5.90
2023-03-12T07:45:08.030Z,6.00
2023-03-12T07:47:53.757Z,6.00
2023-03-12T07:50:39.394Z,6.00
2023-03-12T07:53:25.253Z,6.10
2023-03-12T07:56:10.897Z,6.10
2023-03-12T07:58:56.664Z,6.20
2023-03-12T08:01:44.611Z,6.20
2023-03-12T08:04:31.145Z,6.20
2023-03-12T08:07:18.879Z,6.30
2023-03-12T08:10:07.493Z,6.40
2023-03-12T08:12:53.036Z,6.40
2023-03-12T08:15:38.319Z,6.50
2023-03-12T08:18:24.796Z,6.50
2023-03-12T08:21:10.719Z,6.60
2023-03-12T08:23:56.092Z,6.60
2023-03-12T08:26:41.735Z,6.70
2023-03-12T08:29:27.485Z,6.80
2023-03-12T08:32:14.090Z,6.80
2023-03-12T08:35:00.015Z,6.90
2023-03-12T08:37:45.495Z,7.00
2023-03-12T08:40:30.665Z,7.00
2023-03-12T08:43:16.380Z,7.10
2023-03-12T08:46:05.008Z,7.20
2023-03-12T08:48:50.205Z,7.30
2023-03-12T08:51:35.737Z,7.40
2023-03-12T08:54:21.655Z,7.50
2023-03-12T08:57:06.749Z,7.70
2023-03-12T08:59:52.842Z,7.80
2023-03-12T09:02:38.914Z,7.90
2023-03-12T09:05:30.029Z,8.10
2023-03-12T09:08:16.191Z,8.20
2023-03-12T09:11:02.344Z,8.40
2023-03-12T09:14:15.236Z,8.60
2023-03-12T09:16:54.248Z,8.70
2023-03-12T09:19:40.075Z,8.80
2023-03-12T09:22:25.837Z,9.00
2023-03-12T09:25:12.323Z,9.10
2023-03-12T09:27:57.736Z,9.10
2023-03-12T09:30:43.452Z,9.20
2023-03-12T09:33:28.500Z,9.30
2023-03-12T09:36:14.272Z,9.30
2023-03-12T09:38:59.870Z,9.40
2023-03-12T09:41:47.757Z,9.50
2023-03-12T09:44:38.275Z,9.60
2023-03-12T09:47:37.560Z,9.70
2023-03-12T09:50:28.727Z,9.90
2023-03-12T09:53:41.906Z,9.90
2023-03-12T09:56:27.576Z,10.00
2023-03-12T09:59:13.328Z,10.10
2023-03-12T10:02:15.632Z,10.20
2023-03-12T10:05:11.704Z,10.30
2023-03-12T10:08:23.948Z,10.40
2023-03-12T10:11:36.650Z,10.60
2023-03-12T10:14:44.920Z,10.70
2023-03-12T10:17:57.885Z,10.90
2023-03-12T10:21:08.156Z,11.00
2023-03-12T10:24:05.380Z,11.20
2023-03-12T10:26:52.300Z,11.20
2023-03-12T10:29:44.540Z,11.30
2023-03-12T10:32:37.579Z,11.40
2023-03-12T10:35:25.775Z,11.40
2023-03-12T10:38:27.598Z,11.40
2023-03-12T10:41:22.826Z,11.60
2023-03-12T10:44:09.026Z,11.60
2023-03-12T10:47:13.209Z,11.50
2023-03-12T10:50:22.183Z,11.50
2023-03-12T10:53:28.529Z,11.50
2023-03-12T10:56:19.051Z,11.60
2023-03-12T10:59:21.575Z,11.70
2023-03-12T11:02:28.893Z,11.70
2023-03-12T11:05:28.468Z,11.80
2023-03-12T11:08:35.602Z,11.80
2023-03-12T11:11:32.626Z,11.70
2023-03-12T11:14:21.572Z,11.70
2023-03-12T11:17:24.501Z,11.60
2023-03-12T11:20:39.683Z,11.70
2023-03-12T11:23:30.485Z,11.90
2023-03-12T11:26:22.280Z,12.00
2023-03-12T11:29:30.018Z,12.00
2023-03-12T11:32:38.962Z,12.00
2023-03-12T11:35:49.200Z,12.10
2023-03-12T11:38:50.963Z,12.20
2023-03-12T11:42:03.712Z,12.30
2023-03-12T11:45:07.508Z,12.50
2023-03-12T11:48:08.441Z,12.60
2023-03-12T11:51:02.961Z,12.70
2023-03-12T11:54:25.574Z,12.80
2023-03-12T11:57:49.824Z,13.00
2023-03-12T12:00:46.867Z,13.20
2023-03-12T12:03:44.088Z,13.30
2023-03-12T12:06:54.288Z,13.30
2023-03-12T12:10:09.690Z,13.30
2023-03-12T12:13:29.347Z,13.40
2023-03-12T12:16:42.102Z,13.50
2023-03-12T12:19:39.913Z,13.60
2023-03-12T12:22:52.482Z,13.80
2023-03-12T12:25:49.595Z,14.00
2023-03-12T12:29:17.248Z,13.90
2023-03-12T12:32:04.072Z,13.90
2023-03-12T12:35:16.757Z,13.80
2023-03-12T12:38:14.627Z,13.80
2023-03-12T12:41:19.423Z,13.80
2023-03-12T12:44:20.145Z,13.90
2023-03-12T12:47:13.268Z,13.90
2023-03-12T12:49:59.955Z,14.00
2023-03-12T12:52:51.159Z,14.20
2023-03-12T12:55:50.536Z,14.50
2023-03-12T12:59:09.463Z,14.70
2023-03-12T13:01:57.327Z,14.70
2023-03-12T13:04:43.843Z,14.70
2023-03-12T13:07:31.502Z,14.60
2023-03-12T13:10:35.206Z,14.60
2023-03-12T13:13:23.970Z,14.50
2023-03-12T13:16:40.388Z,14.50
2023-03-12T13:19:27.450Z,14.50
2023-03-12T13:22:40.824Z,14.70
2023-03-12T13:25:35.216Z,15.00
2023-03-12T13:28:35.934Z,15.50
2023-03-12T13:31:21.363Z,15.90
2023-03-12T13:34:10.441Z,16.70
2023-03-12T13:37:01.902Z,17.40
2023-03-12T13:39:47.397Z,18.40
2023-03-12T13:42:39.502Z,18.80
2023-03-12T13:45:28.686Z,19.20
2023-03-12T13:48:19.541Z,19.70
2023-03-12T13:51:16.932Z,20.10
2023-03-12T13:54:03.775Z,20.50
2023-03-12T13:57:20.847Z,21.50
2023-03-12T14:00:34.594Z,22.00
2023-03-12T14:03:25.204Z,22.10
2023-03-12T14:06:13.587Z,22.40
2023-03-12T14:09:07.687Z,22.20
2023-03-12T14:12:12.175Z,21.40
2023-03-12T14:15:23.733Z,20.30
2023-03-12T14:18:22.387Z,19.40
2023-03-12T14:21:10.555Z,18.70
2023-03-12T14:23:58.243Z,18.40
2023-03-12T14:26:49.487Z,18.40
2023-03-12T14:29:45.066Z,18.60
2023-03-12T14:32:33.714Z,18.50
2023-03-12T14:35:33.474Z,18.30
2023-03-12T14:38:30.194Z,18.00
2023-03-12T14:41:39.914Z,17.50
2023-03-12T14:44:28.416Z,17.30
2023-03-12T14:47:18.359Z,17.10
2023-03-12T14:50:03.940Z,16.70
2023-03-12T14:52:49.624Z,16.50
2023-03-12T14:55:37.979Z,16.20
2023-03-12T14:58:23.881Z,16.10
2023-03-12T15:01:14.241Z,16.30
2023-03-12T15:04:14.853Z,16.10
2023-03-12T15:07:04.622Z,15.70
2023-03-12T15:09:51.947Z,15.50
2023-03-12T15:12:38.416Z,15.30
2023-03-12T15:15:31.335Z,15.30
2023-03-12T15:18:30.512Z,15.30
2023-03-12T15:21:16.748Z,15.30
2023-03-12T15:24:12.130Z,15.20
2023-03-12T15:26:57.674Z,15.00
2023-03-12T15:29:44.034Z,14.90
2023-03-12T15:32:32.093Z,14.70
2023-03-12T15:35:25.455Z,14.50
2023-03-12T15:38:17.492Z,14.30
2023-03-12T15:41:10.719Z,14.20
2023-03-12T15:43:58.388Z,14.00
2023-03-12T15:46:48.514Z,13.90
2023-03-12T15:49:39.148Z,13.80
2023-03-12T15:52:30.981Z,13.70
2023-03-12T15:55:16.141Z,13.60
2023-03-12T15:58:05.204Z,13.50
2023-03-12T16:00:52.478Z,13.50
2023-03-12T16:03:40.266Z,13.50
2023-03-12T16:06:27.909Z,13.50
2023-03-12T16:09:18.399Z,13.50
2023-03-12T16:12:07.524Z,13.40
2023-03-12T16:14:56.043Z,13.40
2023-03-12T16:17:41.713Z,13.40
2023-03-12T16:20:29.548Z,13.30
2023-03-12T16:23:16.240Z,13.30
2023-03-12T16:26:04.144Z,13.30
2023-03-12T16:28:51.471Z,13.20
2023-03-12T16:31:37.045Z,13.20
2023-03-12T16:34:22.773Z,13.20
2023-03-12T16:37:12.649Z,13.20
2023-03-12T16:39:58.913Z,13.00
2023-03-12T16:42:53.951Z,12.90
2023-03-12T16:45:44.438Z,12.80
2023-03-12T16:48:30.184Z,12.70
2023-03-12T16:51:16.460Z,12.70
2023-03-12T16:54:10.848Z,12.50
2023-03-12T16:56:56.844Z,12.40
2023-03-12T16:59:45.390Z,12.40
2023-03-12T17:02:31.064Z,12.30
2023-03-12T17:05:16.415Z,12.20
2023-03-12T17:08:02.344Z,12.10
2023-03-12T17:10:48.103Z,12.10
2023-03-12T17:13:36.675Z,12.10
2023-03-12T17:16:23.100Z,12.00
2023-03-12T17:19:08.827Z,12.00
2023-03-12T17:21:54.349Z,12.00
2023-03-12T17:24:40.376Z,12.00
2023-03-12T17:27:25.992Z,11.90
2023-03-12T17:30:12.106Z,12.00
2023-03-12T17:33:12.399Z,12.00
2023-03-12T17:36:07.077Z,11.90
2023-03-12T17:38:55.720Z,11.90
2023-03-12T17:41:42.437Z,11.90
2023-03-12T17:44:34.304Z,11.90
2023-03-12T17:47:19.751Z,12.00
2023-03-12T17:50:06.558Z,11.90
2023-03-12T17:52:52.144Z,11.90
2023-03-12T17:55:38.122Z,11.80
2023-03-12T17:58:23.837Z,11.80
2023-03-12T18:01:09.102Z,11.80
2023-03-12T18:03:55.277Z,11.90
2023-03-12T18:06:40.727Z,11.80
2023-03-12T18:09:26.628Z,11.80
2023-03-12T18:12:12.503Z,11.80
2023-03-12T18:15:00.481Z,11.80
2023-03-12T18:17:46.088Z,11.80
2023-03-12T18:20:38.750Z,11.90
2023-03-12T18:23:25.867Z,11.90
2023-03-12T18:26:12.887Z,11.90
2023-03-12T18:28:59.524Z,11.90
2023-03-12T18:31:45.087Z,11.90
2023-03-12T18:34:30.701Z,11.90
2023-03-12T18:37:17.125Z,11.90
2023-03-12T18:40:02.651Z,11.90
2023-03-12T18:42:50.018Z,11.80
2023-03-12T18:45:35.559Z,11.70
2023-03-12T18:48:21.213Z,11.70
2023-03-12T18:51:06.648Z,11.70
2023-03-12T18:53:51.991Z,11.70
2023-03-12T18:56:39.315Z,11.60
2023-03-12T18:59:25.021Z,11.50
2023-03-12T19:02:10.777Z,11.50
2023-03-12T19:04:56.497Z,11.50
2023-03-12T19:07:43.511Z,11.50
2023-03-12T19:10:31.320Z,11.60
2023-03-12T19:13:16.593Z,11.60
2023-03-12T19:16:05.513Z,11.70
2023-03-12T19:18:57.301Z,11.70
2023-03-12T19:21:43.169Z,11.70
2023-03-12T19:24:28.852Z,11.70
2023-03-12T19:27:14.537Z,11.80
2023-03-12T19:30:00.227Z,11.80
2023-03-12T19:32:46.672Z,11.80
2023-03-12T19:35:32.533Z,11.80
2023-03-12T19:38:24.577Z,11.80
2023-03-12T19:41:10.100Z,11.80
2023-03-12T19:43:55.585Z,11.80
2023-03-12T19:46:43.252Z,11.80
2023-03-12T19:49:29.737Z,11.90
2023-03-12T19:52:19.738Z,11.80
2023-03-12T19:55:06.021Z,11.80
2023-03-12T19:57:51.493Z,11.90
2023-03-12T20:00:37.023Z,11.80
2023-03-12T20:03:23.178Z,11.80
2023-03-12T20:06:13.000Z,11.80
2023-03-12T20:08:59.389Z,11.90
2023-03-12T20:11:45.069Z,11.90
2023-03-12T20:14:30.786Z,11.90
2023-03-12T20:17:18.272Z,11.80
2023-03-12T20:20:12.869Z,11.80
2023-03-12T20:22:58.550Z,11.90
2023-03-12T20:25:47.890Z,11.80
2023-03-12T20:31:33.507Z,11.70
2023-03-12T20:34:18.909Z,11.70
2023-03-12T20:37:04.550Z,11.60
2023-03-12T20:39:50.092Z,11.70
2023-03-12T20:42:35.618Z,11.70
2023-03-12T20:45:21.536Z,11.80
2023-03-12T20:48:13.869Z,11.80
2023-03-12T20:51:00.026Z,11.80
2023-03-12T20:53:45.568Z,11.80
2023-03-12T20:56:31.294Z,11.80
2023-03-12T20:59:16.616Z,11.80
2023-03-12T21:02:05.290Z,11.70
2023-03-12T21:04:55.339Z,11.70
2023-03-12T21:07:40.613Z,11.70
2023-03-12T21:10:26.202Z,11.60
2023-03-12T21:13:11.755Z,11.60
2023-03-12T21:15:57.307Z,11.60
2023-03-12T21:18:45.657Z,11.50
2023-03-12T21:21:36.379Z,11.50
2023-03-12T21:24:21.930Z,11.40
2023-03-12T21:27:11.386Z,11.40
2023-03-12T21:29:57.352Z,11.30
2023-03-12T21:32:42.725Z,11.30
2023-03-12T21:35:28.250Z,11.30
2023-03-12T21:38:13.878Z,11.30
2023-03-12T21:41:07.371Z,11.30
2023-03-12T21:43:53.070Z,11.30
2023-03-12T21:46:38.550Z,11.20
2023-03-12T21:49:24.320Z,11.20
2023-03-12T21:52:10.097Z,11.20
2023-03-12T21:54:58.005Z,11.20
2023-03-12T21:57:45.464Z,11.30
2023-03-12T22:00:30.922Z,11.20
2023-03-12T22:03:16.748Z,11.20
2023-03-12T22:06:02.512Z,11.20
2023-03-12T22:08:49.221Z,11.20
2023-03-12T22:11:34.721Z,11.10
2023-03-12T22:14:19.910Z,11.10
2023-03-12T22:17:05.388Z,11.10
2023-03-12T22:19:51.065Z,11.00
2023-03-12T22:22:36.561Z,11.10
2023-03-12T22:25:21.816Z,11.10
2023-03-12T22:28:13.329Z,11.00
2023-03-12T22:31:06.906Z,11.00
2023-03-12T22:33:52.628Z,11.10
2023-03-12T22:36:41.249Z,11.00
2023-03-12T22:39:26.629Z,11.00
2023-03-12T22:42:11.782Z,11.10
2023-03-12T22:45:00.037Z,11.10
2023-03-12T22:47:45.866Z,11.10
2023-03-12T22:50:31.938Z,11.00
2023-03-12T22:53:18.111Z,11.00
2023-03-12T22:56:06.793Z,11.00
2023-03-12T22:58:54.605Z,11.00
2023-03-12T23:01:40.332Z,10.90
2023-03-12T23:04:25.643Z,10.90
2023-03-12T23:07:17.423Z,10.90
2023-03-12T23:10:04.288Z,10.90
2023-03-12T23:12:49.524Z,11.00
2023-03-12T23:15:41.263Z,11.00
2023-03-12T23:18:26.836Z,10.90
2023-03-12T23:21:15.725Z,11.00
2023-03-12T23:24:01.317Z,10.90
2023-03-12T23:26:47.068Z,11.00
2023-03-12T23:29:34.417Z,11.00
2023-03-12T23:32:20.020Z,11.10
2023-03-12T23:35:09.026Z,11.10
2023-03-12T23:37:57.727Z,11.20
2023-03-12T23:40:43.240Z,11.30
2023-03-12T23:43:29.053Z,11.30
2023-03-12T23:46:17.034Z,11.40
2023-03-12T23:49:02.591Z,11.50
2023-03-12T23:51:48.276Z,11.50
2023-03-12T23:54:33.959Z,11.60
2023-03-12T23:57:19.366Z,11.60
